Virgo Phoenix — 3FMO8 — position and weather

sailwx.info

Track history (hours):
 
Tides and Currents Weather Stations Pressure Air Temp Water Temp Dewpoint Dewpoint Depression Visibility Wind Speed Wind Dir Waves Ship Positions

Virgo Phoenix

Last reported at 2014-Oct-28 11:34 UTC. Time now 2014-Oct-31 12:16 UTC.
Position N 35°17' E 139°45'.

Length 96 m; draft 5 m.

Type: Ship (hazmat cat B). MMSI: 370795000.

Date/timePositionNaut miles runAvg speedWind from/ knotsBaromVisibWave heightAir tempDewpointWater temp
2014-Oct-28 11:34N 35°17' E 139°45'1010.2
2014-Oct-28 10:33N 35°27' E 139°47'8 0.4
2014-Oct-27 12:32N 35°31' E 139°56'1212.0
2014-Oct-27 11:34N 35°23' E 139°46'1111.1
2014-Oct-27 10:33N 35°12' E 139°47'  
2014-Oct-24 10:08N 31°20' E 121°41'711.5
2014-Oct-24 09:33N 31°24' E 121°34'1110.4
2014-Oct-24 08:32N 31°30' E 121°24'1313.6
2014-Oct-24 07:32N 31°39' E 121°13'1313.0
2014-Oct-24 06:33N 31°47' E 121°00'1111.2
2014-Oct-24 05:33N 31°56' E 120°52'1111.6
2014-Oct-24 04:33N 31°60' E 120°40'1110.6
2014-Oct-24 03:33N 31°59' E 120°27'1 1.1
2014-Oct-24 02:31N 31°58' E 120°27'0 0.0
2014-Oct-24 01:31N 31°58' E 120°27'0 0.0
2014-Oct-24 00:31N 31°58' E 120°27'0 0.0
2014-Oct-23 23:31N 31°58' E 120°27'0 0.0
2014-Oct-23 22:31N 31°58' E 120°27'0 0.0
2014-Oct-23 21:31N 31°58' E 120°27'0 0.0
2014-Oct-23 20:31N 31°58' E 120°27'0 0.0
2014-Oct-23 19:28N 31°58' E 120°27'0 0.0
2014-Oct-23 18:31N 31°58' E 120°27'0 0.0
2014-Oct-23 17:31N 31°58' E 120°27'0 0.0
2014-Oct-23 16:31N 31°58' E 120°27'0 0.0
2014-Oct-23 15:25N 31°58' E 120°27'0 0.0
2014-Oct-23 14:31N 31°58' E 120°27'0 0.0
2014-Oct-23 13:31N 31°58' E 120°27'0 0.0
2014-Oct-23 12:31N 31°58' E 120°27'0 0.0
2014-Oct-23 11:31N 31°58' E 120°27'0 0.0
2014-Oct-23 10:31N 31°58' E 120°27'0 0.0
2014-Oct-23 09:31N 31°58' E 120°27'4 4.6
2014-Oct-23 08:33N 32°02' E 120°29'4 3.6
2014-Oct-23 07:31N 32°01' E 120°34'0 0.0
2014-Oct-23 06:31N 32°01' E 120°34'0 0.0
2014-Oct-23 05:28N 32°01' E 120°34'0 0.1
2014-Oct-23 04:28N 32°01' E 120°34'0 0.0
2014-Oct-23 03:31N 32°01' E 120°34'0 0.0
2014-Oct-23 02:31N 32°01' E 120°34'0 0.0
2014-Oct-23 01:31N 32°01' E 120°34'0 0.0
2014-Oct-23 00:31N 32°01' E 120°34'0 0.0
2014-Oct-22 23:31N 32°01' E 120°34'0 0.0
2014-Oct-22 22:31N 32°01' E 120°34'0 0.0
2014-Oct-22 21:31N 32°01' E 120°34'0 0.0
2014-Oct-22 20:22N 32°01' E 120°34'0 0.1
2014-Oct-22 19:31N 32°01' E 120°34'0 0.0
2014-Oct-22 18:31N 32°01' E 120°34'0 0.0
2014-Oct-22 17:28N 32°01' E 120°34'0 0.1
2014-Oct-22 16:31N 32°01' E 120°34'0 0.0
2014-Oct-22 15:31N 32°01' E 120°34'0 0.0
2014-Oct-22 14:28N 32°01' E 120°34'0 0.0
2014-Oct-22 13:28N 32°01' E 120°34'0 0.0
2014-Oct-22 12:31N 32°01' E 120°34'0 0.0
2014-Oct-22 11:31N 32°01' E 120°34'0 0.0
2014-Oct-22 10:31N 32°01' E 120°34'0 0.1
2014-Oct-22 09:31N 32°01' E 120°34'0 0.0
2014-Oct-22 08:31N 32°01' E 120°34'3 2.8
2014-Oct-22 07:34N 32°00' E 120°37'1212.4
2014-Oct-22 06:34N 31°58' E 120°51'1312.9
2014-Oct-22 05:33N 31°47' E 120°58'1413.8
2014-Oct-22 04:31N 31°40' E 121°13'1313.5
2014-Oct-22 03:33N 31°31' E 121°24'1111.1
2014-Oct-22 02:33N 31°24' E 121°34'  
Track history (hours):
 
Tides and Currents Weather Stations Pressure Air Temp Water Temp Dewpoint Dewpoint Depression Visibility Wind Speed Wind Dir Waves Ship Positions

Virgo Phoenix

Last reported at 2014-Oct-28 11:34 UTC. Time now 2014-Oct-31 12:16 UTC.
Position N 35°17' E 139°45'.

Length 96 m; draft 5 m.

Type: Ship (hazmat cat B). MMSI: 370795000.

Date/timePositionNaut miles runAvg speedWind from/ knotsBaromVisibWave heightAir tempDewpointWater temp
2014-Oct-28 11:34N 35°17' E 139°45'1010.2
2014-Oct-28 10:33N 35°27' E 139°47'8 0.4
2014-Oct-27 12:32N 35°31' E 139°56'1212.0
2014-Oct-27 11:34N 35°23' E 139°46'1111.1
2014-Oct-27 10:33N 35°12' E 139°47'  
2014-Oct-24 10:08N 31°20' E 121°41'711.5
2014-Oct-24 09:33N 31°24' E 121°34'1110.4
2014-Oct-24 08:32N 31°30' E 121°24'1313.6
2014-Oct-24 07:32N 31°39' E 121°13'1313.0
2014-Oct-24 06:33N 31°47' E 121°00'1111.2
2014-Oct-24 05:33N 31°56' E 120°52'1111.6
2014-Oct-24 04:33N 31°60' E 120°40'1110.6
2014-Oct-24 03:33N 31°59' E 120°27'1 1.1
2014-Oct-24 02:31N 31°58' E 120°27'0 0.0
2014-Oct-24 01:31N 31°58' E 120°27'0 0.0
2014-Oct-24 00:31N 31°58' E 120°27'0 0.0
2014-Oct-23 23:31N 31°58' E 120°27'0 0.0
2014-Oct-23 22:31N 31°58' E 120°27'0 0.0
2014-Oct-23 21:31N 31°58' E 120°27'0 0.0
2014-Oct-23 20:31N 31°58' E 120°27'0 0.0
2014-Oct-23 19:28N 31°58' E 120°27'0 0.0
2014-Oct-23 18:31N 31°58' E 120°27'0 0.0
2014-Oct-23 17:31N 31°58' E 120°27'0 0.0
2014-Oct-23 16:31N 31°58' E 120°27'0 0.0
2014-Oct-23 15:25N 31°58' E 120°27'0 0.0
2014-Oct-23 14:31N 31°58' E 120°27'0 0.0
2014-Oct-23 13:31N 31°58' E 120°27'0 0.0
2014-Oct-23 12:31N 31°58' E 120°27'0 0.0
2014-Oct-23 11:31N 31°58' E 120°27'0 0.0
2014-Oct-23 10:31N 31°58' E 120°27'0 0.0
2014-Oct-23 09:31N 31°58' E 120°27'4 4.6
2014-Oct-23 08:33N 32°02' E 120°29'4 3.6
2014-Oct-23 07:31N 32°01' E 120°34'0 0.0
2014-Oct-23 06:31N 32°01' E 120°34'0 0.0
2014-Oct-23 05:28N 32°01' E 120°34'0 0.1
2014-Oct-23 04:28N 32°01' E 120°34'0 0.0
2014-Oct-23 03:31N 32°01' E 120°34'0 0.0
2014-Oct-23 02:31N 32°01' E 120°34'0 0.0
2014-Oct-23 01:31N 32°01' E 120°34'0 0.0
2014-Oct-23 00:31N 32°01' E 120°34'0 0.0
2014-Oct-22 23:31N 32°01' E 120°34'0 0.0
2014-Oct-22 22:31N 32°01' E 120°34'0 0.0
2014-Oct-22 21:31N 32°01' E 120°34'0 0.0
2014-Oct-22 20:22N 32°01' E 120°34'0 0.1
2014-Oct-22 19:31N 32°01' E 120°34'0 0.0
2014-Oct-22 18:31N 32°01' E 120°34'0 0.0
2014-Oct-22 17:28N 32°01' E 120°34'0 0.1
2014-Oct-22 16:31N 32°01' E 120°34'0 0.0
2014-Oct-22 15:31N 32°01' E 120°34'0 0.0
2014-Oct-22 14:28N 32°01' E 120°34'0 0.0
2014-Oct-22 13:28N 32°01' E 120°34'0 0.0
2014-Oct-22 12:31N 32°01' E 120°34'0 0.0
2014-Oct-22 11:31N 32°01' E 120°34'0 0.0
2014-Oct-22 10:31N 32°01' E 120°34'0 0.1
2014-Oct-22 09:31N 32°01' E 120°34'0 0.0
2014-Oct-22 08:31N 32°01' E 120°34'3 2.8
2014-Oct-22 07:34N 32°00' E 120°37'1212.4
2014-Oct-22 06:34N 31°58' E 120°51'1312.9
2014-Oct-22 05:33N 31°47' E 120°58'1413.8
2014-Oct-22 04:31N 31°40' E 121°13'1313.5
2014-Oct-22 03:33N 31°31' E 121°24'1111.1
2014-Oct-22 02:33N 31°24' E 121°34'  

Dump ship's entire track history